NCAR-RAP Real-Time Weather Data

Output produced by METARs form (23 June 2018  19:39 UTC)
found at http://weather.rap.ucar.edu/surface/
 
RJSC 231000Z 07008KT 9999 FEW025 SCT130 BKN150 24/17 Q1001
RJSC 230900Z 10007KT 9999 FEW025 SCT140 BKN/// 25/17 Q1001
RJSC 230800Z VRB02KT 9999 FEW030 BKN/// 26/17 Q1001
RJSC 230700Z VRB02KT 9999 FEW050 BKN/// 27/15 Q1002
RJSC 230600Z 27004KT 200V310 9999 FEW050 BKN/// 27/14 Q1003
RJSC 230500Z VRB02KT 9999 FEW050 BKN/// 28/14 Q1003
RJSC 230400Z 27004KT 190V350 CAVOK 27/13 Q1004
RJSC 230300Z VRB03KT CAVOK 26/12 Q1005
RJSC 230200Z VRB02KT CAVOK 25/12 Q1006
RJSC 230100Z 27003KT 190V330 CAVOK 23/12 Q1007
RJSC 230000Z VRB02KT CAVOK 22/12 Q1008
RJSC 222300Z 21003KT 150V280 9999 FEW070 BKN/// 19/11 Q1009
RJSC 222240Z VRB02KT CAVOK 18/12 Q1009 RMK A2981
RJSC 221000Z 27003KT CAVOK 22/09 Q1008
RJSC 220900Z 26006KT 220V290 9999 FEW050 24/09 Q1007
RJSC 220800Z 24010KT 210V270 9999 FEW040 25/10 Q1007
RJSC 220700Z 26010KT 230V300 9999 FEW050 25/09 Q1007
RJSC 220600Z 25009KT 200V290 9999 FEW050 26/09 Q1007
RJSC 220500Z 24011KT 200V270 9999 FEW050 27/10 Q1006
RJSC 220400Z 24011KT 190V280 9999 SCT050 27/10 Q1006
RJSC 220300Z 26012KT 210V300 9999 SCT050 27/11 Q1007
RJSC 220200Z 26010KT 230V310 9999 SCT050 26/11 Q1007
RJSC 220100Z 27010KT 220V310 9999 SCT050 25/11 Q1007
RJSC 220000Z 25009KT 220V290 9999 SCT050 24/12 Q1007
RJSC 212300Z 23008KT 190V280 9999 SCT050 22/13 Q1007
RJSC 212240Z 23008KT 200V280 9999 SCT050 22/12 Q1007 RMK 3CU050 A2976
RJSC 211000Z 33005KT 290V360 9999 FEW040 SCT070 BKN/// 22/17 Q1003
RJSC 210900Z 30008KT 260V350 9999 FEW030 SCT050 BKN/// 24/18 Q1002
RJSC 210800Z 28008KT 250V320 9999 FEW040 BKN/// 26/13 Q1001